createdAt,value
2022-08-20T00:02:20.391Z,101459.75
2022-08-20T00:04:49.871Z,101450.63
2022-08-20T00:07:19.380Z,101459.84
2022-08-20T00:09:48.701Z,101460.16
2022-08-20T00:12:20.330Z,101456.78
2022-08-20T00:14:49.629Z,101460.75
2022-08-20T00:17:18.960Z,101452.63
2022-08-20T00:19:48.263Z,101443.72
2022-08-20T00:22:17.641Z,101454.41
2022-08-20T00:24:47.127Z,101455.41
2022-08-20T00:27:16.456Z,101452.22
2022-08-20T00:29:45.752Z,101456.38
2022-08-20T00:32:15.092Z,101450.63
2022-08-20T00:34:48.292Z,101457.16
2022-08-20T00:37:17.719Z,101459.75
2022-08-20T00:39:47.206Z,101459.94
2022-08-20T00:42:16.573Z,101452.63
2022-08-20T00:44:50.282Z,101449.13
2022-08-20T00:47:19.672Z,101450.38
2022-08-20T00:49:49.063Z,101464.16
2022-08-20T00:52:22.169Z,101460.19
2022-08-20T00:55:01.351Z,101454.94
2022-08-20T00:57:51.217Z,101461.06
2022-08-20T01:00:35.797Z,101467.75
2022-08-20T01:03:05.463Z,101458.38
2022-08-20T01:05:57.800Z,101461.63
2022-08-20T01:08:27.752Z,101451.13
2022-08-20T01:11:08.164Z,101461.00
2022-08-20T01:13:40.077Z,101455.28
2022-08-20T01:16:29.153Z,101447.19
2022-08-20T01:19:00.116Z,101455.97
2022-08-20T01:21:33.600Z,101459.03
2022-08-20T01:24:28.441Z,101459.03
2022-08-20T01:26:59.688Z,101468.09
2022-08-20T01:29:34.619Z,101470.19
2022-08-20T01:32:04.004Z,101466.31
2022-08-20T01:34:33.625Z,101464.44
2022-08-20T01:37:03.018Z,101469.06
2022-08-20T01:39:36.845Z,101470.38
2022-08-20T01:42:30.052Z,101458.78
2022-08-20T01:44:59.503Z,101473.13
2022-08-20T01:47:38.531Z,101461.34
2022-08-20T01:50:20.764Z,101459.75
2022-08-20T01:53:06.691Z,101458.16
2022-08-20T01:55:36.181Z,101461.84
2022-08-20T01:58:05.636Z,101470.25
2022-08-20T02:00:35.956Z,101463.09
2022-08-20T02:03:06.236Z,101464.69
2022-08-20T02:05:36.049Z,101458.16
2022-08-20T02:08:06.988Z,101458.16
2022-08-20T02:10:37.621Z,101463.91
2022-08-20T02:13:09.974Z,101470.59
2022-08-20T02:15:43.080Z,101468.03
2022-08-20T02:18:15.527Z,101462.59
2022-08-20T02:20:46.047Z,101464.69
2022-08-20T02:23:16.327Z,101459.91
2022-08-20T02:25:48.267Z,101464.84
2022-08-20T02:28:20.723Z,101467.44
2022-08-20T02:30:55.322Z,101464.84
2022-08-20T02:33:26.147Z,101454.19
2022-08-20T02:35:57.211Z,101460.09
2022-08-20T02:38:27.382Z,101470.00
2022-08-20T02:40:56.725Z,101465.84
2022-08-20T02:43:26.305Z,101453.56
2022-08-20T02:45:55.796Z,101458.34
2022-08-20T02:48:25.307Z,101468.22
2022-08-20T02:50:58.522Z,101471.09
2022-08-20T02:53:29.399Z,101473.63
2022-08-20T02:55:59.911Z,101479.69
2022-08-20T02:58:30.009Z,101462.47
2022-08-20T03:00:59.424Z,101457.56
2022-08-20T03:03:28.829Z,101456.25
2022-08-20T03:06:00.683Z,101460.91
2022-08-20T03:08:31.333Z,101467.91
2022-08-20T03:11:00.767Z,101474.50
2022-08-20T03:13:30.205Z,101471.66
2022-08-20T03:16:02.920Z,101464.03
2022-08-20T03:18:39.554Z,101473.44
2022-08-20T03:21:10.764Z,101466.91
2022-08-20T03:23:44.515Z,101474.88
2022-08-20T03:26:16.511Z,101475.19
2022-08-20T03:28:46.352Z,101473.50
2022-08-20T03:31:19.060Z,101472.38
2022-08-20T03:33:52.864Z,101474.44
2022-08-20T03:36:28.639Z,101463.09
2022-08-20T03:39:05.164Z,101464.72
2022-08-20T03:41:34.892Z,101462.13
2022-08-20T03:44:04.667Z,101464.91
2022-08-20T03:46:34.109Z,101449.00
2022-08-20T03:49:03.430Z,101463.53
2022-08-20T03:51:34.412Z,101464.81
2022-08-20T03:54:24.250Z,101467.19
2022-08-20T03:57:02.398Z,101473.69
2022-08-20T03:59:33.339Z,101464.81
2022-08-20T04:02:03.738Z,101474.78
2022-08-20T04:04:33.168Z,101471.75
2022-08-20T04:07:02.644Z,101472.72
2022-08-20T04:09:32.019Z,101479.09
2022-08-20T04:12:01.552Z,101476.09
2022-08-20T04:14:31.122Z,101480.34
2022-08-20T04:17:01.176Z,101478.28
2022-08-20T04:19:34.209Z,101481.94
2022-08-20T04:22:04.680Z,101485.59
2022-08-20T04:24:34.917Z,101479.53
2022-08-20T04:27:05.492Z,101494.66
2022-08-20T04:29:36.704Z,101491.31
2022-08-20T04:32:09.757Z,101493.69
2022-08-20T04:34:39.290Z,101500.03
2022-08-20T04:37:17.361Z,101504.81
2022-08-20T04:40:06.961Z,101511.13
2022-08-20T04:42:41.516Z,101505.22
2022-08-20T04:45:13.423Z,101502.09
2022-08-20T04:47:42.775Z,101508.91
2022-08-20T04:50:17.016Z,101507.63
2022-08-20T04:52:50.446Z,101506.03
2022-08-20T04:55:20.291Z,101515.28
2022-08-20T04:57:49.746Z,101509.88
2022-08-20T05:00:20.439Z,101528.13
2022-08-20T05:02:49.886Z,101526.06
2022-08-20T05:05:21.622Z,101523.22
2022-08-20T05:07:50.987Z,101524.00
2022-08-20T05:10:23.606Z,101521.16
2022-08-20T05:12:57.031Z,101527.19
2022-08-20T05:15:27.396Z,101525.72
2022-08-20T05:18:04.800Z,101533.03
2022-08-20T05:20:38.882Z,101535.13
2022-08-20T05:23:10.313Z,101537.19
2022-08-20T05:25:41.096Z,101535.59
2022-08-20T05:28:13.879Z,101538.78
2022-08-20T05:30:45.483Z,101537.00
2022-08-20T05:33:19.877Z,101537.97
2022-08-20T05:35:51.168Z,101539.38
2022-08-20T05:38:22.013Z,101546.09
2022-08-20T05:40:51.482Z,101542.13
2022-08-20T05:43:21.535Z,101542.91
2022-08-20T05:45:56.488Z,101545.47
2022-08-20T05:48:28.054Z,101552.78
2022-08-20T05:50:58.646Z,101549.94
2022-08-20T05:53:28.703Z,101548.16
2022-08-20T05:55:58.024Z,101546.09
2022-08-20T05:58:32.913Z,101549.25
2022-08-20T06:01:02.413Z,101547.31
2022-08-20T06:03:44.488Z,101551.44
2022-08-20T06:06:17.947Z,101553.69
2022-08-20T06:09:03.425Z,101563.28
2022-08-20T06:11:37.026Z,101554.38
2022-08-20T06:14:07.587Z,101553.75
2022-08-20T06:16:37.585Z,101553.75
2022-08-20T06:19:11.302Z,101551.88
2022-08-20T06:21:41.874Z,101552.16
2022-08-20T06:24:11.870Z,101560.09
2022-08-20T06:26:41.240Z,101565.53
2022-08-20T06:29:10.600Z,101567.78
2022-08-20T06:31:41.409Z,101567.13
2022-08-20T06:34:10.868Z,101566.81
2022-08-20T06:36:40.193Z,101582.41
2022-08-20T06:39:12.231Z,101562.66
2022-08-20T06:41:41.720Z,101570.63
2022-08-20T06:44:13.255Z,101561.84
2022-08-20T06:46:43.999Z,101565.16
2022-08-20T06:49:14.443Z,101567.34
2022-08-20T06:51:43.779Z,101570.19
2022-08-20T06:54:13.571Z,101568.38
2022-08-20T06:56:44.440Z,101566.16
2022-08-20T06:59:13.791Z,101570.16
2022-08-20T07:01:43.429Z,101570.09
2022-08-20T07:04:12.800Z,101577.03
2022-08-20T07:06:42.128Z,101577.97
2022-08-20T07:09:11.611Z,101583.69
2022-08-20T07:11:42.258Z,101577.53
2022-08-20T07:14:13.436Z,101585.81
2022-08-20T07:16:43.805Z,101585.63
2022-08-20T07:19:13.438Z,101586.25
2022-08-20T07:21:43.096Z,101580.53
2022-08-20T07:24:12.792Z,101582.72
2022-08-20T07:26:42.191Z,101585.16
2022-08-20T07:29:12.793Z,101575.53
2022-08-20T07:31:54.616Z,101576.13
2022-08-20T07:34:25.664Z,101582.84
2022-08-20T07:36:55.078Z,101583.06
2022-08-20T07:39:24.544Z,101593.09
2022-08-20T07:42:03.332Z,101592.59
2022-08-20T07:44:33.638Z,101587.25
2022-08-20T07:47:05.564Z,101601.88
2022-08-20T07:49:35.411Z,101608.09
2022-08-20T07:52:04.834Z,101607.63
2022-08-20T07:54:38.169Z,101598.34
2022-08-20T07:57:07.864Z,101606.63
2022-08-20T07:59:37.622Z,101608.22
2022-08-20T08:02:08.502Z,101611.38
2022-08-20T08:04:39.992Z,101618.22
2022-08-20T08:07:13.065Z,101618.03
2022-08-20T08:09:44.003Z,101607.47
2022-08-20T08:12:17.074Z,101616.66
2022-08-20T08:14:48.436Z,101616.88
2022-08-20T08:17:19.396Z,101609.47
2022-08-20T08:19:52.649Z,101616.22
2022-08-20T08:22:22.740Z,101612.00
2022-08-20T08:24:57.095Z,101609.22
2022-08-20T08:27:27.177Z,101620.72
2022-08-20T08:29:56.612Z,101616.25
2022-08-20T08:32:25.969Z,101629.13
2022-08-20T08:34:55.402Z,101627.84
2022-08-20T08:37:26.959Z,101624.75
2022-08-20T08:39:59.543Z,101624.97
2022-08-20T08:42:42.577Z,101626.94
2022-08-20T08:45:13.573Z,101627.81
2022-08-20T08:47:43.455Z,101632.31
2022-08-20T08:50:38.530Z,101629.03
2022-08-20T08:53:18.432Z,101635.16
2022-08-20T08:55:47.929Z,101636.63
2022-08-20T08:58:17.631Z,101637.22
2022-08-20T09:00:55.858Z,101636.38
2022-08-20T09:03:31.538Z,101637.69
2022-08-20T09:06:03.315Z,101644.28
2022-08-20T09:08:42.121Z,101637.66
2022-08-20T09:11:11.775Z,101644.06
2022-08-20T09:13:43.141Z,101641.63
2022-08-20T09:16:13.928Z,101643.50
2022-08-20T09:18:43.944Z,101643.28
2022-08-20T09:21:14.546Z,101648.75
2022-08-20T09:23:44.831Z,101645.00
2022-08-20T09:26:14.591Z,101644.94
2022-08-20T09:28:44.153Z,101645.72
2022-08-20T09:31:20.603Z,101644.03
2022-08-20T09:33:53.407Z,101639.88
2022-08-20T09:36:31.803Z,101643.47
2022-08-20T09:39:03.169Z,101641.59
2022-08-20T09:41:34.528Z,101649.13
2022-08-20T09:44:04.427Z,101646.91
2022-08-20T09:46:33.816Z,101648.19
2022-08-20T09:49:03.200Z,101645.25
2022-08-20T09:51:33.111Z,101642.94
2022-08-20T09:54:02.681Z,101643.63
2022-08-20T09:56:36.047Z,101644.09
2022-08-20T09:59:05.672Z,101643.78
2022-08-20T10:01:35.982Z,101643.88
2022-08-20T10:04:05.557Z,101646.16
2022-08-20T10:06:37.788Z,101637.31
2022-08-20T10:09:07.297Z,101637.88
2022-08-20T10:11:37.000Z,101646.88
2022-08-20T10:14:07.435Z,101659.38
2022-08-20T10:16:36.793Z,101652.75
2022-08-20T10:19:07.667Z,101658.03
2022-08-20T10:21:38.969Z,101658.72
2022-08-20T10:24:09.284Z,101659.72
2022-08-20T10:26:40.900Z,101660.00
2022-08-20T10:29:13.409Z,101656.22
2022-08-20T10:31:43.473Z,101659.66
2022-08-20T10:34:12.785Z,101658.69
2022-08-20T10:36:47.500Z,101649.19
2022-08-20T10:39:16.891Z,101655.59
2022-08-20T10:41:46.184Z,101664.03
2022-08-20T10:44:17.659Z,101657.41
2022-08-20T10:46:47.709Z,101651.72
2022-08-20T10:49:17.237Z,101650.31
2022-08-20T10:51:46.654Z,101670.53
2022-08-20T10:54:16.972Z,101668.59
2022-08-20T10:56:46.418Z,101670.66
2022-08-20T10:59:16.113Z,101671.13
2022-08-20T11:01:45.449Z,101665.22
2022-08-20T11:04:14.821Z,101660.97
2022-08-20T11:06:47.009Z,101672.16
2022-08-20T11:09:16.400Z,101665.84
2022-08-20T11:11:45.938Z,101661.31
2022-08-20T11:14:15.238Z,101662.38
2022-08-20T11:16:44.568Z,101669.34
2022-08-20T11:19:13.931Z,101679.69
2022-08-20T11:21:43.351Z,101678.97
2022-08-20T11:24:12.670Z,101683.19
2022-08-20T11:26:42.060Z,101669.09
2022-08-20T11:29:12.685Z,101676.28
2022-08-20T11:31:42.081Z,101678.13
2022-08-20T11:34:13.368Z,101663.94
2022-08-20T11:36:43.526Z,101670.81
2022-08-20T11:39:13.099Z,101684.22
2022-08-20T11:41:45.807Z,101673.94
2022-08-20T11:44:21.102Z,101686.31
2022-08-20T11:46:51.231Z,101679.72
2022-08-20T11:49:20.568Z,101686.56
2022-08-20T11:51:50.356Z,101681.28
2022-08-20T11:54:20.187Z,101688.66
2022-08-20T11:56:50.680Z,101683.91
2022-08-20T11:59:20.997Z,101681.78
2022-08-20T12:02:02.730Z,101678.13
2022-08-20T12:04:38.350Z,101665.56
2022-08-20T12:07:16.581Z,101663.94
2022-08-20T12:09:51.240Z,101662.38
2022-08-20T12:12:23.516Z,101670.28
2022-08-20T12:14:54.550Z,101673.94
2022-08-20T12:17:32.852Z,101672.34
2022-08-20T12:20:05.529Z,101668.91
2022-08-20T12:22:35.031Z,101668.63
2022-08-20T12:25:04.867Z,101668.63
2022-08-20T12:27:36.222Z,101672.09
2022-08-20T12:30:12.429Z,101667.09
2022-08-20T12:32:42.450Z,101668.44
2022-08-20T12:35:13.652Z,101667.63
2022-08-20T12:37:44.797Z,101659.47
2022-08-20T12:40:17.327Z,101672.09
2022-08-20T12:43:00.327Z,101679.16
2022-08-20T12:45:29.680Z,101671.03
2022-08-20T12:48:14.234Z,101671.06
2022-08-20T12:50:50.070Z,101668.69
2022-08-20T12:53:19.715Z,101673.16
2022-08-20T12:55:49.412Z,101667.09
2022-08-20T12:58:19.439Z,101670.78
2022-08-20T13:00:51.392Z,101671.56
2022-08-20T13:03:21.817Z,101665.78
2022-08-20T13:05:53.057Z,101660.53
2022-08-20T13:08:22.467Z,101665.22
2022-08-20T13:10:52.074Z,101659.88
2022-08-20T13:13:21.578Z,101666.75
2022-08-20T13:15:52.931Z,101662.34
2022-08-20T13:18:23.224Z,101662.63
2022-08-20T13:20:52.671Z,101657.59
2022-08-20T13:23:22.017Z,101667.53
2022-08-20T13:25:51.515Z,101661.53
2022-08-20T13:28:20.859Z,101647.63
2022-08-20T13:30:50.437Z,101645.31
2022-08-20T13:33:19.755Z,101643.69
2022-08-20T13:35:49.180Z,101652.63
2022-08-20T13:38:18.541Z,101639.50
2022-08-20T13:40:49.067Z,101636.59
2022-08-20T13:43:18.507Z,101647.09
2022-08-20T13:45:47.818Z,101645.00
2022-08-20T13:48:17.148Z,101646.06
2022-08-20T13:50:47.653Z,101651.56
2022-08-20T13:53:17.690Z,101639.72
2022-08-20T13:55:49.155Z,101634.72
2022-08-20T13:58:19.526Z,101633.16
2022-08-20T14:00:49.210Z,101639.22
2022-08-20T14:03:20.156Z,101637.63
2022-08-20T14:05:54.964Z,101634.47
2022-08-20T14:08:26.337Z,101634.94
2022-08-20T14:10:55.688Z,101632.78
2022-08-20T14:13:28.052Z,101643.19
2022-08-20T14:15:58.775Z,101633.63
2022-08-20T14:18:28.221Z,101641.78
2022-08-20T14:20:57.715Z,101646.84
2022-08-20T14:23:27.023Z,101638.25
2022-08-20T14:25:57.500Z,101643.47
2022-08-20T14:28:27.647Z,101638.19
2022-08-20T14:30:57.220Z,101642.56
2022-08-20T14:33:27.077Z,101641.53
2022-08-20T14:35:58.437Z,101646.63
2022-08-20T14:38:27.777Z,101647.69
2022-08-20T14:40:57.720Z,101652.66
2022-08-20T14:43:27.092Z,101648.00
2022-08-20T14:45:56.444Z,101652.50
2022-08-20T14:48:28.208Z,101657.28
2022-08-20T14:50:59.525Z,101645.19
2022-08-20T14:53:28.837Z,101652.81
2022-08-20T14:55:58.241Z,101647.84
2022-08-20T14:58:28.308Z,101656.25
2022-08-20T15:00:57.698Z,101649.16
2022-08-20T15:03:30.508Z,101646.78
2022-08-20T15:06:01.591Z,101637.06
2022-08-20T15:08:31.610Z,101638.16
2022-08-20T15:11:01.081Z,101639.72
2022-08-20T15:13:30.480Z,101631.28
2022-08-20T15:15:59.895Z,101640.75
2022-08-20T15:18:29.354Z,101641.59
2022-08-20T15:20:58.676Z,101638.44
2022-08-20T15:23:27.989Z,101633.19
2022-08-20T15:25:57.396Z,101636.84
2022-08-20T15:28:26.774Z,101634.47
2022-08-20T15:30:56.165Z,101636.31
2022-08-20T15:33:26.851Z,101638.44
2022-08-20T15:35:56.206Z,101633.16
2022-08-20T15:38:25.602Z,101630.03
2022-08-20T15:40:54.993Z,101634.50
2022-08-20T15:43:24.451Z,101626.84
2022-08-20T15:45:53.880Z,101636.06
2022-08-20T15:48:33.415Z,101627.63
2022-08-20T15:51:12.881Z,101638.41
2022-08-20T15:53:54.852Z,101636.31
2022-08-20T15:56:35.400Z,101632.88
2022-08-20T15:59:48.202Z,101629.72
2022-08-20T16:02:46.295Z,101633.34
2022-08-20T16:05:30.623Z,101635.19
2022-08-20T16:08:05.645Z,101631.25
2022-08-20T16:10:53.745Z,101634.69
2022-08-20T16:13:40.971Z,101640.97
2022-08-20T16:16:19.357Z,101644.13
2022-08-20T16:18:52.799Z,101642.78
2022-08-20T16:21:40.020Z,101646.19
2022-08-20T16:24:12.769Z,101631.47
2022-08-20T16:26:57.989Z,101634.38
2022-08-20T16:30:09.026Z,101645.69
2022-08-20T16:32:46.701Z,101644.38
2022-08-20T16:35:31.176Z,101651.75
2022-08-20T16:38:10.083Z,101656.47
2022-08-20T16:40:49.717Z,101656.72
2022-08-20T16:43:42.381Z,101655.69
2022-08-20T16:46:37.830Z,101654.81
2022-08-20T16:49:14.473Z,101659.25
2022-08-20T16:52:04.190Z,101659.38
2022-08-20T16:54:33.536Z,101652.00
2022-08-20T16:57:06.627Z,101664.84
2022-08-20T16:59:37.122Z,101663.78
2022-08-20T17:02:14.063Z,101656.41
2022-08-20T17:04:53.273Z,101663.19
2022-08-20T17:07:33.579Z,101658.13
2022-08-20T17:10:26.443Z,101656.56
2022-08-20T17:13:02.591Z,101655.00
2022-08-20T17:15:39.811Z,101666.88
2022-08-20T17:18:37.101Z,101661.38
2022-08-20T17:21:23.437Z,101667.63
2022-08-20T17:24:17.743Z,101663.91
2022-08-20T17:26:55.019Z,101661.78
2022-08-20T17:29:30.036Z,101665.44
2022-08-20T17:32:02.716Z,101667.47
2022-08-20T17:34:50.018Z,101663.81
2022-08-20T17:37:26.872Z,101672.13
2022-08-20T17:40:08.157Z,101658.84
2022-08-20T17:42:50.043Z,101668.09
2022-08-20T17:45:27.759Z,101654.34
2022-08-20T17:48:01.054Z,101670.81
2022-08-20T17:50:35.779Z,101670.53
2022-08-20T17:53:23.908Z,101674.53
2022-08-20T17:55:58.621Z,101674.41
2022-08-20T17:58:54.955Z,101669.84
2022-08-20T18:01:26.050Z,101671.59
2022-08-20T18:03:56.096Z,101668.66
2022-08-20T18:06:55.447Z,101677.22
2022-08-20T18:09:58.235Z,101680.78
2022-08-20T18:12:35.433Z,101680.69
2022-08-20T18:15:25.527Z,101682.16
2022-08-20T18:18:00.995Z,101688.16
2022-08-20T18:20:49.144Z,101698.19
2022-08-20T18:23:23.684Z,101699.19
2022-08-20T18:26:00.164Z,101689.88
2022-08-20T18:28:38.546Z,101698.25
2022-08-20T18:31:13.397Z,101697.88
2022-08-20T18:33:45.806Z,101693.13
2022-08-20T18:36:22.080Z,101710.88
2022-08-20T18:39:11.996Z,101707.53
2022-08-20T18:41:44.372Z,101706.66
2022-08-20T18:44:17.554Z,101703.06
2022-08-20T18:47:17.733Z,101702.88
2022-08-20T18:49:47.300Z,101706.63
2022-08-20T18:52:29.067Z,101699.59
2022-08-20T18:55:03.027Z,101706.81
2022-08-20T18:57:41.676Z,101707.53
2022-08-20T19:00:14.552Z,101711.56
2022-08-20T19:03:12.503Z,101706.41
2022-08-20T19:06:02.364Z,101709.97
2022-08-20T19:09:19.936Z,101720.56
2022-08-20T19:12:17.470Z,101713.25
2022-08-20T19:15:07.152Z,101722.91
2022-08-20T19:17:44.851Z,101722.31
2022-08-20T19:20:19.157Z,101727.63
2022-08-20T19:22:53.837Z,101718.91
2022-08-20T19:25:27.510Z,101722.44
2022-08-20T19:28:18.432Z,101720.34
2022-08-20T19:30:47.862Z,101717.41
2022-08-20T19:33:17.285Z,101725.09
2022-08-20T19:35:49.045Z,101728.47
2022-08-20T19:38:19.239Z,101725.59
2022-08-20T19:40:53.625Z,101728.63
2022-08-20T19:43:46.104Z,101725.78
2022-08-20T19:46:21.342Z,101732.66
2022-08-20T19:49:15.406Z,101722.50
2022-08-20T19:52:22.680Z,101729.22
2022-08-20T19:55:01.282Z,101728.31
2022-08-20T19:57:32.978Z,101724.81
2022-08-20T20:00:13.208Z,101737.41
2022-08-20T20:02:42.739Z,101732.00
2022-08-20T20:05:13.127Z,101731.53
2022-08-20T20:07:52.075Z,101735.06
2022-08-20T20:10:37.767Z,101726.00
2022-08-20T20:13:17.979Z,101725.84
2022-08-20T20:15:47.612Z,101726.50
2022-08-20T20:18:17.028Z,101725.56
2022-08-20T20:20:57.975Z,101723.47
2022-08-20T20:23:46.104Z,101712.50
2022-08-20T20:26:20.308Z,101727.00
2022-08-20T20:28:53.808Z,101721.91
2022-08-20T20:31:28.118Z,101722.25
2022-08-20T20:34:03.992Z,101717.28
2022-08-20T20:37:02.763Z,101719.81
2022-08-20T20:39:37.146Z,101726.69
2022-08-20T20:42:10.343Z,101718.72
2022-08-20T20:44:46.108Z,101728.22
2022-08-20T20:47:26.656Z,101720.56
2022-08-20T20:50:00.482Z,101714.00
2022-08-20T20:52:30.750Z,101721.50
2022-08-20T20:55:23.330Z,101717.97
2022-08-20T20:57:53.414Z,101718.94
2022-08-20T21:00:25.666Z,101721.44
2022-08-20T21:02:55.393Z,101718.09
2022-08-20T21:05:27.330Z,101712.81
2022-08-20T21:08:03.499Z,101708.16
2022-08-20T21:10:37.552Z,101712.44
2022-08-20T21:13:08.759Z,101713.53
2022-08-20T21:15:39.956Z,101717.44
2022-08-20T21:18:11.649Z,101711.50
2022-08-20T21:20:41.115Z,101710.09
2022-08-20T21:23:10.415Z,101709.41
2022-08-20T21:25:42.896Z,101702.50
2022-08-20T21:28:12.402Z,101709.03
2022-08-20T21:30:41.824Z,101703.47
2022-08-20T21:33:11.134Z,101711.38
2022-08-20T21:35:40.599Z,101708.66
2022-08-20T21:38:09.898Z,101705.72
2022-08-20T21:40:43.227Z,101708.13
2022-08-20T21:43:15.595Z,101700.97
2022-08-20T21:45:49.547Z,101711.72
2022-08-20T21:48:19.327Z,101706.28
2022-08-20T21:50:48.866Z,101705.59
2022-08-20T21:53:18.294Z,101709.41
2022-08-20T21:55:47.642Z,101699.50
2022-08-20T21:58:16.979Z,101706.94
2022-08-20T22:00:55.093Z,101698.94
2022-08-20T22:03:27.526Z,101701.59
2022-08-20T22:05:57.512Z,101703.91
2022-08-20T22:08:28.365Z,101699.56
2022-08-20T22:10:59.004Z,101704.47
2022-08-20T22:13:31.873Z,101691.63
2022-08-20T22:16:03.921Z,101696.63
2022-08-20T22:18:33.583Z,101700.09
2022-08-20T22:21:03.404Z,101686.97
2022-08-20T22:23:32.752Z,101699.06
2022-08-20T22:26:02.194Z,101678.75
2022-08-20T22:28:31.576Z,101689.06
2022-08-20T22:31:01.330Z,101688.84
2022-08-20T22:33:30.760Z,101682.13
2022-08-20T22:36:00.764Z,101683.94
2022-08-20T22:38:30.490Z,101686.47
2022-08-20T22:41:00.320Z,101691.50
2022-08-20T22:43:29.727Z,101694.03
2022-08-20T22:46:03.402Z,101687.97
2022-08-20T22:48:33.439Z,101681.59
2022-08-20T22:51:03.282Z,101689.34
2022-08-20T22:53:34.004Z,101695.16
2022-08-20T22:56:03.650Z,101690.03
2022-08-20T22:58:33.671Z,101688.91
2022-08-20T23:01:05.284Z,101690.63
2022-08-20T23:03:40.250Z,101683.91
2022-08-20T23:06:14.213Z,101683.09
2022-08-20T23:08:45.510Z,101691.75
2022-08-20T23:11:15.425Z,101692.34
2022-08-20T23:13:44.735Z,101679.91
2022-08-20T23:16:14.257Z,101678.88
2022-08-20T23:18:43.807Z,101680.69
2022-08-20T23:21:13.111Z,101673.53
2022-08-20T23:23:42.417Z,101673.63
2022-08-20T23:26:14.368Z,101667.59
2022-08-20T23:28:43.755Z,101668.06
2022-08-20T23:31:13.255Z,101684.00
2022-08-20T23:33:44.858Z,101671.91
2022-08-20T23:36:15.179Z,101665.50
2022-08-20T23:38:45.276Z,101661.09
2022-08-20T23:41:18.678Z,101660.03
2022-08-20T23:43:48.137Z,101658.56
2022-08-20T23:46:17.623Z,101646.94
2022-08-20T23:48:47.017Z,101650.78
2022-08-20T23:51:16.403Z,101652.97
2022-08-20T23:53:45.731Z,101653.09
2022-08-20T23:56:15.399Z,101649.91
2022-08-20T23:58:44.764Z,101657.63
